Time;durP1;ratioP1;P1;durP2;ratioP2;P2;SDS_P1;SDS_P2;PMS_P1;PMS_P2;Temp;Humidity;BMP_temperature;BMP_pressure;BME280_temperature;BME280_humidity;BME280_pressure;Samples;Min_cycle;Max_cycle;Signal;HPM_P1;HPM_P2
2021/12/25 00:00:51;;;;;;;;;;;;;;;2.64;96.41;97007.27;1762011;80;24457;-86
2021/12/25 00:03:18;;;;;;;;;;;;;;;2.59;96.39;97005.42;1756400;80;20472;-86
2021/12/25 00:05:45;;;;;;;;;;;;;;;2.61;96.43;97002.30;1753968;81;24871;-86
2021/12/25 00:08:11;;;;;;;;;;;;;;;2.64;96.46;97009.02;1735225;82;22047;-85
2021/12/25 00:10:37;;;;;;;;;;;;;;;2.62;96.50;97009.09;1738248;81;26906;-85
2021/12/25 00:13:03;;;;;;;;;;;;;;;2.62;96.55;97012.97;1740784;81;24324;-86
2021/12/25 00:15:31;;;;;;;;;;;;;;;2.66;96.63;97008.47;1751739;80;20534;-85
2021/12/25 00:17:57;;;;;;;;;;;;;;;2.69;96.71;97015.55;1720219;81;25139;-86
2021/12/25 00:20:23;;;;;;;;;;;;;;;2.70;96.79;97022.84;1744374;81;20224;-86
2021/12/25 00:22:54;;;;;;;;;;;;;;;2.69;96.84;97019.89;1750159;80;26746;-85
2021/12/25 00:25:19;;;;;;;;;;;;;;;2.67;96.87;97029.50;1740189;81;24517;-86
2021/12/25 00:28:17;;;;;;;;;;;;;;;2.66;96.92;97018.80;1745751;81;20276;-85
2021/12/25 00:30:37;;;;;;;;;;;;;;;2.66;96.97;97014.47;1737855;81;24915;-86
2021/12/25 00:33:30;;;;;;;;;;;;;;;2.69;97.06;97026.34;1742921;80;21974;-86
2021/12/25 00:35:27;;;;;;;;;;;;;;;2.71;97.14;97027.92;1743852;80;25462;-85
2021/12/25 00:37:53;;;;;;;;;;;;;;;2.71;97.22;97029.22;1738041;81;24679;-86
2021/12/25 00:40:19;;;;;;;;;;;;;;;2.74;97.26;97035.48;1738834;80;20490;-86
2021/12/25 00:42:46;;;;;;;;;;;;;;;2.76;97.35;97049.14;1718219;81;24531;-86
2021/12/25 00:45:12;;;;;;;;;;;;;;;2.79;97.39;97051.98;1743745;81;21994;-86
2021/12/25 00:47:38;;;;;;;;;;;;;;;2.77;97.41;97067.59;1738002;81;26039;-86
2021/12/25 00:50:05;;;;;;;;;;;;;;;2.72;97.40;97073.96;1744409;80;24374;-86
2021/12/25 00:52:31;;;;;;;;;;;;;;;2.70;97.43;97065.00;1744345;81;20332;-86
2021/12/25 00:54:57;;;;;;;;;;;;;;;2.71;97.43;97078.29;1744875;81;24779;-86
2021/12/25 00:57:23;;;;;;;;;;;;;;;2.68;97.45;97078.91;1747209;81;21946;-86
2021/12/25 00:59:49;;;;;;;;;;;;;;;2.64;97.44;97074.41;1744010;81;25971;-86
2021/12/25 01:02:16;;;;;;;;;;;;;;;2.65;97.47;97085.57;1741462;81;20921;-86
2021/12/25 01:04:42;;;;;;;;;;;;;;;2.62;97.47;97086.56;1746534;81;20178;-86
2021/12/25 01:07:08;;;;;;;;;;;;;;;2.57;97.50;97089.89;1741312;81;24730;-86
2021/12/25 01:09:34;;;;;;;;;;;;;;;2.58;97.51;97091.55;1750387;81;21997;-85
2021/12/25 01:12:00;;;;;;;;;;;;;;;2.55;97.53;97089.17;1748686;80;26772;-85
2021/12/25 01:14:39;;;;;;;;;;;;;;;2.52;97.53;97104.83;1760034;80;24614;-85
2021/12/25 01:17:40;;;;;;;;;;;;;;;2.47;97.52;97112.02;1768718;80;20245;-85
2021/12/25 01:30:06;;;;;;;;;;;;;;;2.38;97.61;97109.52;1755372;80;20547;-85
2021/12/25 01:32:57;;;;;;;;;;;;;;;2.38;97.68;97108.23;1770652;80;24978;-86
2021/12/25 01:40:49;;;;;;;;;;;;;;;2.49;97.91;97112.31;1731224;80;25146;-86
2021/12/25 01:48:27;;;;;;;;;;;;;;;2.53;98.13;97116.36;1763292;81;22026;-85
2021/12/25 01:50:54;;;;;;;;;;;;;;;2.51;98.14;97122.52;1753578;81;26130;-86
2021/12/25 01:53:20;;;;;;;;;;;;;;;2.50;98.18;97120.43;1758408;81;24499;-86
2021/12/25 01:55:48;;;;;;;;;;;;;;;2.51;98.22;97126.39;1756953;81;20165;-86
2021/12/25 01:58:14;;;;;;;;;;;;;;;2.53;98.25;97125.41;1747061;79;25617;-86
2021/12/25 02:00:44;;;;;;;;;;;;;;;2.56;98.30;97130.02;1761957;80;21944;-86
2021/12/25 02:03:11;;;;;;;;;;;;;;;2.52;98.35;97124.19;1762903;80;26103;-85
2021/12/25 02:05:38;;;;;;;;;;;;;;;2.50;98.34;97131.22;1764285;80;24621;-86
2021/12/25 02:08:04;;;;;;;;;;;;;;;2.54;98.41;97124.94;1763455;80;20608;-86
2021/12/25 02:10:31;;;;;;;;;;;;;;;2.58;98.47;97116.09;1761542;81;24825;-85
2021/12/25 02:12:58;;;;;;;;;;;;;;;2.56;98.53;97130.02;1753656;81;21939;-85
2021/12/25 02:15:26;;;;;;;;;;;;;;;2.58;98.56;97138.50;1750698;81;25457;-85
2021/12/25 02:20:35;;;;;;;;;;;;;;;2.56;98.59;97128.73;1750687;80;20328;-85
2021/12/25 02:23:04;;;;;;;;;;;;;;;2.64;98.65;97131.22;1754616;81;24954;-85
2021/12/25 02:25:35;;;;;;;;;;;;;;;2.68;98.68;97137.03;1754175;81;22010;-85
2021/12/25 02:28:01;;;;;;;;;;;;;;;2.69;98.72;97139.53;1751297;81;26255;-85
2021/12/25 02:30:28;;;;;;;;;;;;;;;2.73;98.74;97143.58;1752984;81;24600;-85
2021/12/25 02:32:54;;;;;;;;;;;;;;;2.72;98.76;97149.70;1750184;81;20241;-85
2021/12/25 02:35:20;;;;;;;;;;;;;;;2.69;98.78;97156.31;1754572;80;24766;-85
2021/12/25 02:37:49;;;;;;;;;;;;;;;2.70;98.83;97156.70;1751368;81;22022;-85
2021/12/25 02:40:16;;;;;;;;;;;;;;;2.71;98.85;97163.53;1751531;81;25994;-85
2021/12/25 02:42:42;;;;;;;;;;;;;;;2.73;98.88;97166.83;1753407;81;24499;-85
2021/12/25 02:45:15;;;;;;;;;;;;;;;2.74;98.87;97176.70;1758204;80;20459;-85
2021/12/25 02:47:42;;;;;;;;;;;;;;;2.78;98.91;97179.02;1752247;81;25506;-85
2021/12/25 02:50:05;;;;;;;;;;;;;;;2.72;98.92;97162.61;1748315;80;22014;-85
2021/12/25 02:52:32;;;;;;;;;;;;;;;2.60;98.87;97175.41;1747213;81;26679;-85
2021/12/25 02:54:59;;;;;;;;;;;;;;;2.60;98.90;97177.53;1750041;81;24638;-85
2021/12/25 02:57:25;;;;;;;;;;;;;;;2.63;98.95;97170.88;1754745;81;20491;-85
2021/12/25 02:59:51;;;;;;;;;;;;;;;2.67;98.94;97174.97;1752947;81;24789;-85
2021/12/25 03:02:17;;;;;;;;;;;;;;;2.69;98.96;97174.40;1749770;81;22057;-86
2021/12/25 03:04:45;;;;;;;;;;;;;;;2.70;98.98;97172.19;1749675;81;26055;-85
2021/12/25 03:07:11;;;;;;;;;;;;;;;2.69;98.95;97186.02;1751138;81;24448;-85
2021/12/25 03:09:38;;;;;;;;;;;;;;;2.61;98.90;97187.40;1734649;80;20329;-85
2021/12/25 03:12:06;;;;;;;;;;;;;;;2.56;98.87;97182.50;1747268;80;24835;-85
2021/12/25 03:15:00;;;;;;;;;;;;;;;2.49;98.82;97183.77;1745801;80;22033;-85
2021/12/25 03:17:07;;;;;;;;;;;;;;;2.44;98.77;97185.33;1743978;80;26038;-85
2021/12/25 03:19:34;;;;;;;;;;;;;;;2.40;98.72;97200.59;1756127;79;24389;-85
2021/12/25 03:22:04;;;;;;;;;;;;;;;2.38;98.68;97206.78;1752662;81;20248;-85
2021/12/25 03:24:30;;;;;;;;;;;;;;;2.33;98.66;97212.22;1755047;79;25018;-86
2021/12/25 03:26:57;;;;;;;;;;;;;;;2.27;98.59;97220.75;1744827;80;22842;-85
2021/12/25 03:29:24;;;;;;;;;;;;;;;2.22;98.59;97217.60;1708563;82;26216;-85
2021/12/25 03:31:50;;;;;;;;;;;;;;;2.13;98.52;97227.16;1705838;80;24384;-85
2021/12/25 03:34:16;;;;;;;;;;;;;;;2.11;98.52;97214.33;1753477;81;20325;-86
2021/12/25 03:36:43;;;;;;;;;;;;;;;2.11;98.50;97216.91;1756473;80;24742;-86
2021/12/25 03:39:09;;;;;;;;;;;;;;;2.09;98.51;97213.12;1757526;79;21956;-85
2021/12/25 03:41:35;;;;;;;;;;;;;;;2.13;98.52;97209.09;1749144;81;25968;-86
2021/12/25 03:44:01;;;;;;;;;;;;;;;2.12;98.59;97206.97;1738802;81;24526;-86
2021/12/25 03:46:31;;;;;;;;;;;;;;;2.09;98.58;97210.53;1732225;81;20475;-85
2021/12/25 03:49:06;;;;;;;;;;;;;;;2.09;98.60;97226.47;1751498;81;24751;-85
2021/12/25 03:59:47;;;;;;;;;;;;;;;2.11;98.71;97238.84;1756143;81;20213;-86
2021/12/25 04:02:18;;;;;;;;;;;;;;;2.16;98.76;97239.42;1750413;81;24835;-85
2021/12/25 04:04:44;;;;;;;;;;;;;;;2.15;98.78;97248.53;1751866;80;22029;-85
2021/12/25 04:07:23;;;;;;;;;;;;;;;2.13;98.77;97250.38;1751939;80;26055;-85
2021/12/25 04:09:40;;;;;;;;;;;;;;;2.15;98.82;97242.91;1755413;80;20574;-85
2021/12/25 04:12:10;;;;;;;;;;;;;;;2.17;98.82;97246.70;1756505;80;21009;-85
2021/12/25 04:14:36;;;;;;;;;;;;;;;2.21;98.85;97252.06;1764099;80;24859;-85
2021/12/25 04:17:03;;;;;;;;;;;;;;;2.27;98.89;97259.47;1762384;80;21977;-85
2021/12/25 04:19:29;;;;;;;;;;;;;;;2.29;98.94;97270.06;1757323;80;26228;-86
2021/12/25 04:22:07;;;;;;;;;;;;;;;2.29;98.97;97268.78;1752198;81;24404;-86
2021/12/25 04:24:30;;;;;;;;;;;;;;;2.27;98.98;97267.22;1763424;80;20291;-86
2021/12/25 04:26:55;;;;;;;;;;;;;;;2.28;99.03;97264.56;1762341;80;24815;-86
2021/12/25 04:47:45;;;;;;;;;;;;;;;2.29;99.08;97279.59;1753859;80;22046;-85
2021/12/25 05:04:13;;;;;;;;;;;;;;;2.14;98.82;97284.28;1751292;81;20456;-85
2021/12/25 05:06:35;;;;;;;;;;;;;;;2.21;98.87;97289.48;1751330;81;24919;-86
2021/12/25 05:09:01;;;;;;;;;;;;;;;2.28;98.91;97283.08;1756972;81;22024;-85
2021/12/25 05:11:27;;;;;;;;;;;;;;;2.28;98.93;97285.66;1760437;81;26063;-85
2021/12/25 05:13:53;;;;;;;;;;;;;;;2.19;98.91;97290.02;1752401;81;24497;-86
2021/12/25 05:16:20;;;;;;;;;;;;;;;2.17;98.94;97290.13;1751355;81;20226;-86
2021/12/25 05:18:46;;;;;;;;;;;;;;;2.15;98.97;97294.52;1749143;81;24670;-86
2021/12/25 05:21:15;;;;;;;;;;;;;;;2.14;99.01;97294.14;1758386;81;22045;-85
2021/12/25 05:23:43;;;;;;;;;;;;;;;2.21;99.07;97305.81;1745232;81;26932;-85
2021/12/25 05:26:09;;;;;;;;;;;;;;;2.22;99.09;97313.09;1748142;81;24449;-85
2021/12/25 05:28:44;;;;;;;;;;;;;;;2.06;99.05;97338.45;1756767;81;20309;-85
2021/12/25 05:31:11;;;;;;;;;;;;;;;1.78;98.84;97344.67;1755048;81;24997;-85
2021/12/25 05:33:38;;;;;;;;;;;;;;;1.57;98.63;97342.76;1756947;81;22140;-86
2021/12/25 05:36:04;;;;;;;;;;;;;;;1.48;98.48;97339.80;1754576;80;25975;-86
2021/12/25 05:38:31;;;;;;;;;;;;;;;1.28;98.29;97353.70;1757870;81;24436;-85
2021/12/25 05:40:57;;;;;;;;;;;;;;;1.15;98.09;97352.18;1758694;81;20265;-84
2021/12/25 05:43:23;;;;;;;;;;;;;;;1.08;97.98;97357.73;1765866;79;24824;-84
2021/12/25 05:45:49;;;;;;;;;;;;;;;0.92;97.83;97351.21;1738604;81;22191;-85
2021/12/25 05:48:21;;;;;;;;;;;;;;;0.79;97.67;97357.85;1752793;81;26764;-85
2021/12/25 05:50:47;;;;;;;;;;;;;;;0.67;97.51;97365.70;1754611;81;24481;-85
2021/12/25 05:53:13;;;;;;;;;;;;;;;0.61;97.41;97365.98;1752850;81;20420;-85
2021/12/25 05:55:40;;;;;;;;;;;;;;;0.60;97.39;97367.38;1763514;80;24839;-85
2021/12/25 05:58:07;;;;;;;;;;;;;;;0.54;97.35;97371.52;1756779;79;22086;-85
2021/12/25 06:00:34;;;;;;;;;;;;;;;0.34;97.27;97378.41;1760972;79;26080;-85
2021/12/25 06:03:03;;;;;;;;;;;;;;;0.20;97.15;97382.08;1754288;80;24463;-85
2021/12/25 06:05:29;;;;;;;;;;;;;;;0.00;96.99;97382.95;1745701;80;20498;-85
2021/12/25 06:07:56;;;;;;;;;;;;;;;-0.08;96.88;97381.64;1748774;81;25635;-85
2021/12/25 06:10:22;;;;;;;;;;;;;;;-0.11;96.81;97389.50;1739252;81;22062;-85
2021/12/25 06:12:49;;;;;;;;;;;;;;;-0.07;96.81;97393.15;1742260;81;26729;-85
2021/12/25 06:15:19;;;;;;;;;;;;;;;-0.11;96.84;97404.93;1744026;81;24406;-85
2021/12/25 06:17:44;;;;;;;;;;;;;;;-0.26;96.79;97419.27;1744541;81;20330;-85
2021/12/25 06:20:12;;;;;;;;;;;;;;;-0.33;96.72;97421.73;1744529;81;25353;-85
2021/12/25 06:22:38;;;;;;;;;;;;;;;-0.31;96.73;97424.22;1736962;81;21445;-85
2021/12/25 06:25:05;;;;;;;;;;;;;;;-0.27;96.77;97437.34;1742061;81;26071;-85
2021/12/25 06:27:31;;;;;;;;;;;;;;;-0.34;96.76;97441.06;1739871;81;24639;-85
2021/12/25 06:29:57;;;;;;;;;;;;;;;-0.38;96.79;97434.39;1740583;81;20354;-85
2021/12/25 06:32:26;;;;;;;;;;;;;;;-0.38;96.79;97427.97;1737648;80;24797;-85
2021/12/25 06:34:52;;;;;;;;;;;;;;;-0.36;96.81;97441.13;1759828;81;20270;-85
2021/12/25 06:37:19;;;;;;;;;;;;;;;-0.37;96.85;97448.44;1754399;81;26028;-85
2021/12/25 06:39:47;;;;;;;;;;;;;;;-0.46;96.80;97447.11;1740421;80;24414;-86
2021/12/25 06:42:13;;;;;;;;;;;;;;;-0.54;96.73;97442.72;1756598;80;20402;-85
2021/12/25 06:44:39;;;;;;;;;;;;;;;-0.54;96.73;97443.17;1754547;81;24727;-85
2021/12/25 06:47:05;;;;;;;;;;;;;;;-0.54;96.73;97450.88;1733390;81;21988;-85
2021/12/25 06:49:31;;;;;;;;;;;;;;;-0.52;96.74;97453.78;1744898;81;26210;-85
2021/12/25 06:51:58;;;;;;;;;;;;;;;-0.62;96.69;97452.50;1753793;80;24538;-84
2021/12/25 06:54:24;;;;;;;;;;;;;;;-0.74;96.60;97454.27;1742840;81;20514;-85
2021/12/25 06:56:50;;;;;;;;;;;;;;;-0.81;96.52;97455.41;1735026;81;20222;-84
2021/12/25 06:59:17;;;;;;;;;;;;;;;-0.77;96.46;97464.69;1755674;81;21960;-85
2021/12/25 07:01:45;;;;;;;;;;;;;;;-0.79;96.44;97463.06;1748325;81;25978;-85
2021/12/25 07:04:13;;;;;;;;;;;;;;;-0.78;96.40;97466.02;1739656;81;25123;-84
2021/12/25 07:06:40;;;;;;;;;;;;;;;-0.77;96.41;97472.84;1750319;81;20290;-84
2021/12/25 07:09:07;;;;;;;;;;;;;;;-0.72;96.45;97482.03;1734590;80;24652;-86
2021/12/25 07:11:34;;;;;;;;;;;;;;;-0.70;96.48;97491.77;1743055;81;22008;-84
2021/12/25 07:14:02;;;;;;;;;;;;;;;-0.83;96.44;97481.62;1759394;81;25997;-84
2021/12/25 07:16:27;;;;;;;;;;;;;;;-1.00;96.34;97480.16;1755241;81;24568;-84
2021/12/25 07:18:54;;;;;;;;;;;;;;;-1.12;96.17;97489.61;1752172;81;20309;-85
2021/12/25 07:21:21;;;;;;;;;;;;;;;-1.26;96.05;97476.05;1760290;80;25632;-85
2021/12/25 07:23:48;;;;;;;;;;;;;;;-1.40;95.87;97482.96;1756622;81;22133;-84
2021/12/25 07:26:17;;;;;;;;;;;;;;;-1.44;95.73;97493.41;1757283;81;25973;-84
2021/12/25 07:28:42;;;;;;;;;;;;;;;-1.47;95.64;97488.37;1754115;81;25058;-84
2021/12/25 07:31:08;;;;;;;;;;;;;;;-1.51;95.59;97486.37;1752057;81;20583;-85
2021/12/25 07:33:37;;;;;;;;;;;;;;;-1.49;95.58;97490.17;1752665;81;24797;-84
2021/12/25 07:36:02;;;;;;;;;;;;;;;-1.53;95.57;97494.59;1751899;81;22604;-84
2021/12/25 07:38:29;;;;;;;;;;;;;;;-1.56;95.55;97493.84;1745916;81;26981;-84
2021/12/25 07:40:55;;;;;;;;;;;;;;;-1.56;95.55;97496.42;1749643;81;25121;-84
2021/12/25 07:43:21;;;;;;;;;;;;;;;-1.61;95.52;97508.58;1751966;80;20528;-84
2021/12/25 07:45:48;;;;;;;;;;;;;;;-1.68;95.49;97519.49;1754491;81;24721;-85
2021/12/25 07:48:18;;;;;;;;;;;;;;;-1.75;95.44;97518.06;1757949;81;21980;-84
2021/12/25 07:50:43;;;;;;;;;;;;;;;-1.83;95.39;97523.45;1753595;80;25981;-85
2021/12/25 07:53:10;;;;;;;;;;;;;;;-1.85;95.36;97524.37;1753643;81;20299;-84
2021/12/25 07:55:37;;;;;;;;;;;;;;;-1.81;95.39;97531.94;1757408;80;20208;-84
2021/12/25 07:58:03;;;;;;;;;;;;;;;-1.77;95.41;97540.34;1752997;81;25392;-84
2021/12/25 08:00:29;;;;;;;;;;;;;;;-1.75;95.45;97541.14;1758501;81;21915;-84
2021/12/25 08:02:55;;;;;;;;;;;;;;;-1.78;95.50;97529.25;1756538;81;25933;-85
2021/12/25 08:05:22;;;;;;;;;;;;;;;-1.80;95.52;97546.87;1751394;81;24320;-85
2021/12/25 08:07:48;;;;;;;;;;;;;;;-1.78;95.56;97548.48;1741090;81;20225;-85
2021/12/25 08:10:17;;;;;;;;;;;;;;;-1.82;95.57;97547.37;1717931;81;24587;-85
2021/12/25 08:12:44;;;;;;;;;;;;;;;-1.82;95.57;97546.09;1718093;82;22207;-85
2021/12/25 08:15:11;;;;;;;;;;;;;;;-1.77;95.63;97558.30;1720866;82;26225;-84
2021/12/25 08:17:37;;;;;;;;;;;;;;;-1.73;95.68;97561.14;1713749;82;24355;-84
2021/12/25 08:20:04;;;;;;;;;;;;;;;-1.72;95.71;97574.36;1718802;82;20324;-84
2021/12/25 08:22:30;;;;;;;;;;;;;;;-1.66;95.81;97563.89;1730497;81;24762;-84
2021/12/25 08:24:57;;;;;;;;;;;;;;;-1.62;95.90;97565.45;1721506;81;22058;-84
2021/12/25 08:27:23;;;;;;;;;;;;;;;-1.64;95.93;97555.70;1727896;81;26046;-84
2021/12/25 08:29:49;;;;;;;;;;;;;;;-1.71;95.92;97548.67;1728862;82;25359;-84
2021/12/25 08:32:15;;;;;;;;;;;;;;;-1.74;95.91;97546.64;1718085;81;20391;-84
2021/12/25 08:34:43;;;;;;;;;;;;;;;-1.77;95.87;97555.73;1731451;81;24826;-84
2021/12/25 08:37:09;;;;;;;;;;;;;;;-1.78;95.87;97560.47;1717874;82;22689;-84
2021/12/25 08:39:35;;;;;;;;;;;;;;;-1.85;95.81;97566.24;1690007;81;26028;-85
2021/12/25 08:42:04;;;;;;;;;;;;;;;-1.91;95.73;97565.64;1735309;81;24361;-85
2021/12/25 08:44:35;;;;;;;;;;;;;;;-1.94;95.62;97570.86;1720327;81;20250;-86
2021/12/25 08:46:59;;;;;;;;;;;;;;;-1.87;95.63;97555.66;1721783;81;24780;-85
2021/12/25 08:49:29;;;;;;;;;;;;;;;-1.78;95.63;97554.05;1737247;81;21992;-85
2021/12/25 08:51:56;;;;;;;;;;;;;;;-1.78;95.62;97550.20;1722595;81;26060;-85
2021/12/25 08:54:22;;;;;;;;;;;;;;;-1.80;95.60;97557.14;1704332;81;24637;-85
2021/12/25 08:56:48;;;;;;;;;;;;;;;-1.81;95.57;97549.89;1721950;81;20230;-85
2021/12/25 08:59:14;;;;;;;;;;;;;;;-1.83;95.52;97549.09;1725372;81;24894;-85
2021/12/25 09:01:41;;;;;;;;;;;;;;;-1.79;95.49;97567.77;1721901;81;21964;-85
2021/12/25 09:04:07;;;;;;;;;;;;;;;-1.80;95.44;97569.95;1729645;81;25987;-85
2021/12/25 09:06:33;;;;;;;;;;;;;;;-1.75;95.44;97572.75;1724857;81;24476;-85
2021/12/25 09:09:00;;;;;;;;;;;;;;;-1.76;95.40;97583.90;1729771;81;20272;-85
2021/12/25 09:11:26;;;;;;;;;;;;;;;-1.72;95.37;97589.75;1725302;81;24926;-86
2021/12/25 09:13:52;;;;;;;;;;;;;;;-1.72;95.34;97588.02;1726712;81;22095;-86
2021/12/25 09:16:18;;;;;;;;;;;;;;;-1.70;95.33;97585.41;1724034;81;25987;-87
2021/12/25 09:18:44;;;;;;;;;;;;;;;-1.78;95.21;97576.69;1733413;81;20339;-85
2021/12/25 09:21:10;;;;;;;;;;;;;;;-1.90;95.06;97579.67;1733975;81;20271;-86
2021/12/25 09:23:36;;;;;;;;;;;;;;;-1.87;94.92;97581.30;1723690;81;24789;-86
2021/12/25 09:26:03;;;;;;;;;;;;;;;-1.80;94.85;97575.89;1716480;81;22043;-87
2021/12/25 09:28:29;;;;;;;;;;;;;;;-1.68;94.81;97581.05;1733499;81;25943;-87
2021/12/25 09:30:56;;;;;;;;;;;;;;;-1.72;94.74;97571.80;1720867;81;24286;-87
2021/12/25 09:33:22;;;;;;;;;;;;;;;-1.79;94.60;97583.98;1723708;81;20270;-87
2021/12/25 09:35:48;;;;;;;;;;;;;;;-1.87;94.41;97577.46;1717587;81;24809;-87
2021/12/25 09:38:14;;;;;;;;;;;;;;;-1.93;94.23;97573.82;1725971;81;22028;-87
2021/12/25 09:40:41;;;;;;;;;;;;;;;-1.97;94.05;97569.70;1724665;81;26023;-86
2021/12/25 09:43:07;;;;;;;;;;;;;;;-2.03;93.87;97577.14;1703456;81;24337;-86
2021/12/25 09:45:33;;;;;;;;;;;;;;;-1.94;93.76;97579.83;1738076;81;20246;-86
2021/12/25 09:47:59;;;;;;;;;;;;;;;-1.84;93.72;97573.49;1728731;81;24941;-86
2021/12/25 09:50:25;;;;;;;;;;;;;;;-1.85;93.65;97561.56;1723721;81;22100;-87
2021/12/25 09:52:51;;;;;;;;;;;;;;;-1.81;93.60;97564.43;1735599;81;26025;-86
2021/12/25 09:55:18;;;;;;;;;;;;;;;-1.66;93.63;97561.33;1697009;81;24439;-86
2021/12/25 09:57:46;;;;;;;;;;;;;;;-1.55;93.70;97560.94;1743023;81;20164;-86
2021/12/25 10:00:18;;;;;;;;;;;;;;;-1.48;93.72;97552.14;1737570;80;24973;-87
2021/12/25 10:02:48;;;;;;;;;;;;;;;-1.53;93.70;97560.02;1735170;81;21986;-86
2021/12/25 10:05:31;;;;;;;;;;;;;;;-1.49;93.65;97561.56;1719888;81;25986;-86
2021/12/25 10:08:07;;;;;;;;;;;;;;;-1.42;93.62;97555.77;1724383;81;25315;-86
2021/12/25 10:10:40;;;;;;;;;;;;;;;-1.36;93.63;97555.52;1757984;78;20155;-86
2021/12/25 10:13:07;;;;;;;;;;;;;;;-1.27;93.64;97559.90;1765216;79;24958;-86
2021/12/25 10:15:33;;;;;;;;;;;;;;;-1.19;93.66;97552.34;1765193;79;21977;-86
2021/12/25 10:17:59;;;;;;;;;;;;;;;-1.15;93.65;97544.49;1760654;79;25948;-86
2021/12/25 10:20:27;;;;;;;;;;;;;;;-1.13;93.63;97549.55;1771067;79;24432;-85
2021/12/25 10:23:07;;;;;;;;;;;;;;;-1.07;93.62;97545.47;1769828;79;20510;-85
2021/12/25 10:25:38;;;;;;;;;;;;;;;-1.02;93.62;97547.41;1776387;79;24777;-85
2021/12/25 10:28:06;;;;;;;;;;;;;;;-1.01;93.58;97551.22;1776343;79;21844;-86
2021/12/25 10:30:33;;;;;;;;;;;;;;;-0.98;93.54;97552.81;1781222;79;26008;-85
2021/12/25 10:32:59;;;;;;;;;;;;;;;-0.97;93.50;97560.47;1781081;79;24425;-86
2021/12/25 10:35:31;;;;;;;;;;;;;;;-1.01;93.42;97557.63;1775890;78;20611;-85
2021/12/25 10:37:55;;;;;;;;;;;;;;;-1.09;93.27;97558.83;1778853;79;24922;-85
2021/12/25 10:40:31;;;;;;;;;;;;;;;-1.13;93.17;97558.09;1779974;79;21926;-86
2021/12/25 10:43:00;;;;;;;;;;;;;;;-1.14;93.09;97556.41;1776169;79;26119;-86
2021/12/25 10:45:28;;;;;;;;;;;;;;;-1.22;92.95;97554.59;1785209;79;24487;-86
2021/12/25 10:48:06;;;;;;;;;;;;;;;-1.34;92.82;97553.75;1775692;79;20198;-87
2021/12/25 10:50:36;;;;;;;;;;;;;;;-1.43;92.66;97553.66;1778849;79;24744;-86
2021/12/25 10:53:10;;;;;;;;;;;;;;;-1.44;92.53;97554.98;1787002;79;21511;-86
2021/12/25 10:55:36;;;;;;;;;;;;;;;-1.48;92.46;97558.56;1773349;79;26395;-86
2021/12/25 10:58:03;;;;;;;;;;;;;;;-1.50;92.37;97552.63;1762574;79;24433;-85
2021/12/25 11:00:31;;;;;;;;;;;;;;;-1.60;92.25;97544.44;1758571;80;20309;-85
2021/12/25 11:03:05;;;;;;;;;;;;;;;-1.57;92.22;97543.03;1761795;79;24847;-86
2021/12/25 11:05:36;;;;;;;;;;;;;;;-1.53;92.21;97547.19;1759799;79;22174;-85
2021/12/25 11:08:07;;;;;;;;;;;;;;;-1.55;92.22;97542.55;1758097;79;26019;-86
2021/12/25 11:10:50;;;;;;;;;;;;;;;-1.53;92.24;97543.34;1777974;78;24421;-86
2021/12/25 11:13:22;;;;;;;;;;;;;;;-1.50;92.24;97539.80;1783065;78;20279;-85
2021/12/25 11:15:49;;;;;;;;;;;;;;;-1.54;92.26;97541.66;1793499;78;24856;-85
2021/12/25 11:18:16;;;;;;;;;;;;;;;-1.53;92.27;97545.91;1789442;78;21987;-86
2021/12/25 11:20:45;;;;;;;;;;;;;;;-1.47;92.30;97545.66;1802353;78;26840;-86
2021/12/25 11:23:13;;;;;;;;;;;;;;;-1.36;92.42;97544.81;1725095;82;25277;-85
2021/12/25 11:25:40;;;;;;;;;;;;;;;-1.25;92.53;97545.70;1762113;79;20355;-85
2021/12/25 11:28:09;;;;;;;;;;;;;;;-1.17;92.65;97545.43;1755693;81;24810;-86
2021/12/25 11:30:36;;;;;;;;;;;;;;;-1.11;92.77;97543.92;1751163;79;21967;-85
2021/12/25 11:33:03;;;;;;;;;;;;;;;-1.03;92.83;97550.87;1760612;80;25963;-85
2021/12/25 11:35:33;;;;;;;;;;;;;;;-1.00;92.94;97544.34;1752765;80;24670;-86
2021/12/25 11:37:59;;;;;;;;;;;;;;;-0.96;93.02;97533.90;1747935;80;20284;-85
2021/12/25 11:40:26;;;;;;;;;;;;;;;-1.03;93.01;97536.30;1750348;80;25356;-86
2021/12/25 11:42:54;;;;;;;;;;;;;;;-1.07;93.01;97541.62;1749606;81;21978;-87
2021/12/25 11:45:23;;;;;;;;;;;;;;;-1.17;92.95;97553.13;1753236;80;26619;-86
2021/12/25 11:47:53;;;;;;;;;;;;;;;-1.23;92.88;97555.48;1755390;80;25227;-86
2021/12/25 11:50:22;;;;;;;;;;;;;;;-1.24;92.84;97554.24;1753619;80;20206;-85
2021/12/25 11:52:59;;;;;;;;;;;;;;;-1.28;92.82;97547.95;1721076;82;24765;-85
2021/12/25 11:58:20;;;;;;;;;;;;;;;-1.44;92.62;97549.41;1758994;80;26068;-85
2021/12/25 12:00:48;;;;;;;;;;;;;;;-1.42;92.59;97550.64;1753295;80;24447;-86
2021/12/25 12:03:18;;;;;;;;;;;;;;;-1.39;92.59;97549.23;1734793;82;21020;-86
2021/12/25 12:05:46;;;;;;;;;;;;;;;-1.47;92.54;97552.06;1692369;82;24881;-86
2021/12/25 12:08:15;;;;;;;;;;;;;;;-1.60;92.45;97552.58;1754342;81;22648;-86
2021/12/25 12:10:46;;;;;;;;;;;;;;;-1.80;92.25;97552.01;1727220;80;26052;-85
2021/12/25 12:13:26;;;;;;;;;;;;;;;-1.86;92.04;97561.19;1747615;80;24515;-86
2021/12/25 12:15:57;;;;;;;;;;;;;;;-1.90;91.91;97558.31;1726794;81;20279;-87
2021/12/25 12:18:33;;;;;;;;;;;;;;;-1.92;91.79;97557.11;1716509;81;25517;-86
2021/12/25 12:21:06;;;;;;;;;;;;;;;-1.92;91.70;97563.96;1751152;79;22151;-86
2021/12/25 12:23:40;;;;;;;;;;;;;;;-1.97;91.60;97557.72;1768957;79;26199;-86
2021/12/25 12:26:06;;;;;;;;;;;;;;;-1.97;91.49;97560.72;1798964;79;24798;-85
2021/12/25 12:28:45;;;;;;;;;;;;;;;-2.02;91.42;97562.61;1785442;79;20172;-86
2021/12/25 12:31:30;;;;;;;;;;;;;;;-2.07;91.29;97564.02;1790267;79;24729;-85
2021/12/25 12:33:56;;;;;;;;;;;;;;;-2.17;91.18;97572.91;1790128;79;22041;-85
2021/12/25 12:36:23;;;;;;;;;;;;;;;-2.17;91.10;97578.88;1786767;79;26195;-85
2021/12/25 12:38:54;;;;;;;;;;;;;;;-2.21;91.03;97576.02;1783568;79;24490;-86
2021/12/25 12:41:24;;;;;;;;;;;;;;;-2.25;91.00;97568.05;1779518;79;20337;-88
2021/12/25 12:43:58;;;;;;;;;;;;;;;-2.27;90.96;97577.94;1779886;78;24751;-86
2021/12/25 12:46:25;;;;;;;;;;;;;;;-2.23;90.96;97579.51;1791500;78;22104;-87
2021/12/25 12:49:02;;;;;;;;;;;;;;;-2.20;90.97;97576.86;1784958;78;26554;-86
2021/12/25 12:51:28;;;;;;;;;;;;;;;-2.22;90.95;97578.63;1784171;78;25314;-85
2021/12/25 12:53:54;;;;;;;;;;;;;;;-2.22;90.94;97579.91;1790596;78;20408;-85
2021/12/25 12:56:21;;;;;;;;;;;;;;;-2.20;90.95;97585.83;1782859;78;24716;-87
2021/12/25 12:58:55;;;;;;;;;;;;;;;-2.21;90.96;97586.71;1757521;79;22205;-88
2021/12/25 13:01:22;;;;;;;;;;;;;;;-2.27;90.94;97586.47;1772768;78;26149;-88
2021/12/25 13:03:50;;;;;;;;;;;;;;;-2.34;90.90;97596.95;1775431;78;24416;-87
2021/12/25 13:06:16;;;;;;;;;;;;;;;-2.43;90.84;97595.53;1758624;79;20273;-88
2021/12/25 13:08:45;;;;;;;;;;;;;;;-2.48;90.79;97598.69;1774512;79;24793;-87
2021/12/25 13:11:21;;;;;;;;;;;;;;;-2.54;90.73;97600.16;1792074;78;21967;-86
2021/12/25 13:13:50;;;;;;;;;;;;;;;-2.57;90.70;97597.70;1787221;78;26708;-86
2021/12/25 13:16:11;;;;;;;;;;;;;;;-2.60;90.69;97593.50;1798305;78;24437;-86
2021/12/25 13:18:38;;;;;;;;;;;;;;;-2.68;90.64;97595.92;1799040;78;20233;-85
2021/12/25 13:21:15;;;;;;;;;;;;;;;-2.71;90.61;97598.11;1783059;78;24859;-85
2021/12/25 13:23:49;;;;;;;;;;;;;;;-2.68;90.61;97602.32;1796794;79;22008;-85
2021/12/25 13:26:11;;;;;;;;;;;;;;;-2.70;90.62;97597.23;1782958;79;26022;-85
2021/12/25 13:28:40;;;;;;;;;;;;;;;-2.74;90.59;97597.38;1777773;79;24492;-85
2021/12/25 13:31:10;;;;;;;;;;;;;;;-2.76;90.57;97603.82;1774901;79;20165;-85
2021/12/25 13:33:39;;;;;;;;;;;;;;;-2.73;90.59;97611.42;1775873;79;24886;-85
2021/12/25 13:36:06;;;;;;;;;;;;;;;-2.70;90.63;97606.64;1765891;79;22778;-86
2021/12/25 13:38:51;;;;;;;;;;;;;;;-2.74;90.65;97608.47;1704736;82;25965;-85
2021/12/25 13:41:31;;;;;;;;;;;;;;;-2.79;90.64;97606.92;1715442;80;24462;-87
2021/12/25 13:44:16;;;;;;;;;;;;;;;-2.85;90.59;97611.78;1739833;81;20259;-87
2021/12/25 13:46:47;;;;;;;;;;;;;;;-2.88;90.56;97618.27;1735497;82;24919;-86
2021/12/25 13:49:32;;;;;;;;;;;;;;;-2.91;90.54;97627.77;1738017;81;21784;-87
2021/12/25 13:52:02;;;;;;;;;;;;;;;-2.94;90.50;97640.19;1720102;82;23345;-87
2021/12/25 13:54:28;;;;;;;;;;;;;;;-2.92;90.52;97634.60;1727114;82;24547;-86
2021/12/25 13:56:54;;;;;;;;;;;;;;;-2.90;90.55;97637.13;1727037;82;20412;-86
2021/12/25 13:59:32;;;;;;;;;;;;;;;-2.98;90.53;97639.45;1777350;79;25010;-88
2021/12/25 14:02:00;;;;;;;;;;;;;;;-2.97;90.51;97643.70;1767606;79;22087;-86